Time;durP1;ratioP1;P1;durP2;ratioP2;P2;SDS_P1;SDS_P2;PMS_P1;PMS_P2;Temp;Humidity;BMP_temperature;BMP_pressure;BME280_temperature;BME280_humidity;BME280_pressure;Samples;Min_cycle;Max_cycle;Signal;HPM_P1;HPM_P2
2021/07/19 00:00:32;;;;;;;6.63;4.47;;;24.40;99.70;;;;;;5034266;28;20049;-46
2021/07/19 00:03:02;;;;;;;8.80;4.72;;;24.40;99.80;;;;;;5034403;28;20049;-45
2021/07/19 00:05:31;;;;;;;9.23;5.15;;;24.40;99.80;;;;;;5034232;28;20080;-46
2021/07/19 00:07:59;;;;;;;9.52;5.68;;;24.30;99.90;;;;;;5032323;28;20042;-45
2021/07/19 00:10:30;;;;;;;5.93;4.20;;;24.30;99.90;;;;;;5033540;28;20052;-45
2021/07/19 00:12:59;;;;;;;6.75;4.30;;;24.30;99.90;;;;;;5033959;28;20388;-46
2021/07/19 00:15:28;;;;;;;6.22;4.40;;;24.30;99.90;;;;;;5033972;28;20045;-45
2021/07/19 00:17:58;;;;;;;9.27;5.13;;;24.30;99.90;;;;;;5034238;28;20038;-46
2021/07/19 00:20:26;;;;;;;5.95;4.13;;;24.30;99.90;;;;;;5033403;28;20053;-46
2021/07/19 00:22:55;;;;;;;6.65;4.22;;;24.30;99.90;;;;;;5033121;28;20052;-45
2021/07/19 00:25:26;;;;;;;7.25;4.70;;;24.30;99.90;;;;;;5033824;28;20375;-46
2021/07/19 00:27:57;;;;;;;5.93;4.25;;;24.30;99.90;;;;;;5031941;28;20479;-46
2021/07/19 00:30:27;;;;;;;7.22;4.43;;;24.30;99.90;;;;;;5033389;28;20057;-45
2021/07/19 00:32:56;;;;;;;6.30;4.50;;;24.30;99.90;;;;;;5033645;28;20041;-46
2021/07/19 00:35:27;;;;;;;9.55;4.88;;;24.30;99.90;;;;;;5016125;28;20053;-45
2021/07/19 00:37:57;;;;;;;8.27;4.57;;;24.30;99.90;;;;;;5033309;28;20081;-45
2021/07/19 00:40:28;;;;;;;5.95;4.32;;;24.30;99.90;;;;;;5032631;28;20045;-45
2021/07/19 00:42:57;;;;;;;8.13;5.25;;;24.30;99.90;;;;;;5032142;28;20045;-45
2021/07/19 00:45:29;;;;;;;9.73;5.13;;;24.20;99.90;;;;;;5032110;28;20046;-45
2021/07/19 00:48:02;;;;;;;6.78;4.63;;;24.20;99.90;;;;;;5033252;28;20046;-45
2021/07/19 00:50:34;;;;;;;6.85;3.75;;;24.20;99.90;;;;;;5033388;28;20049;-45
2021/07/19 00:53:07;;;;;;;8.60;5.47;;;24.30;99.90;;;;;;5031797;28;20500;-45
2021/07/19 00:55:39;;;;;;;7.07;4.55;;;24.30;99.90;;;;;;5032810;28;20041;-45
2021/07/19 00:58:10;;;;;;;8.40;4.13;;;24.20;99.90;;;;;;5032564;28;20133;-47
2021/07/19 01:00:49;;;;;;;7.15;4.47;;;24.20;99.90;;;;;;5032726;28;20037;-45
2021/07/19 01:03:22;;;;;;;8.02;4.70;;;24.20;99.90;;;;;;5015581;28;20046;-45
2021/07/19 01:05:55;;;;;;;6.32;4.10;;;24.20;99.90;;;;;;5031757;28;20049;-45
2021/07/19 01:08:28;;;;;;;6.65;4.60;;;24.20;99.90;;;;;;5033298;28;20041;-45
2021/07/19 01:11:01;;;;;;;8.93;4.78;;;24.20;99.90;;;;;;5036412;28;20455;-45
2021/07/19 01:13:31;;;;;;;6.90;4.28;;;24.20;99.90;;;;;;5036548;28;20048;-46
2021/07/19 01:16:01;;;;;;;7.15;5.28;;;24.20;99.90;;;;;;5037080;28;20046;-45
2021/07/19 01:18:30;;;;;;;5.95;4.70;;;24.20;99.90;;;;;;5036858;28;20049;-45
2021/07/19 01:21:06;;;;;;;9.38;5.05;;;24.20;99.90;;;;;;5036787;28;20045;-45
2021/07/19 01:23:58;;;;;;;9.07;4.90;;;24.20;99.90;;;;;;5037123;28;20170;-45
2021/07/19 01:27:09;;;;;;;8.98;4.85;;;24.20;99.90;;;;;;5036124;28;20073;-46
2021/07/19 01:29:41;;;;;;;7.80;4.68;;;24.20;99.90;;;;;;5035874;28;20072;-47
2021/07/19 01:32:13;;;;;;;6.97;4.90;;;24.20;99.90;;;;;;5036289;28;20046;-45
2021/07/19 01:34:44;;;;;;;12.40;5.28;;;24.20;99.90;;;;;;5019827;28;20041;-47
2021/07/19 01:37:20;;;;;;;8.32;4.45;;;24.20;99.90;;;;;;5035762;28;20049;-47
2021/07/19 01:40:24;;;;;;;9.02;5.15;;;24.20;99.90;;;;;;5014827;28;20136;-45
2021/07/19 01:42:54;;;;;;;7.40;4.72;;;24.20;99.90;;;;;;5030446;28;20404;-45
2021/07/19 01:45:23;;;;;;;5.68;3.88;;;24.20;99.90;;;;;;5036317;28;20511;-46
2021/07/19 01:47:52;;;;;;;7.07;4.95;;;24.10;99.90;;;;;;5036643;28;20190;-46
2021/07/19 01:50:20;;;;;;;5.95;4.82;;;24.20;99.90;;;;;;5035041;28;20048;-45
2021/07/19 01:53:16;;;;;;;8.73;5.40;;;24.10;99.90;;;;;;5035828;28;20045;-45
2021/07/19 01:55:47;;;;;;;8.07;5.22;;;24.20;99.90;;;;;;5035347;28;20045;-45
2021/07/19 01:58:18;;;;;;;7.00;4.63;;;24.10;99.90;;;;;;5034313;28;20500;-45
2021/07/19 02:01:08;;;;;;;6.57;4.85;;;24.20;99.90;;;;;;5034331;28;20125;-45
2021/07/19 02:03:37;;;;;;;7.75;4.30;;;24.20;99.90;;;;;;5035865;28;20403;-45
2021/07/19 02:06:08;;;;;;;12.68;5.78;;;24.20;99.90;;;;;;5035352;28;20096;-46
2021/07/19 02:08:40;;;;;;;7.07;4.45;;;24.20;99.90;;;;;;5036141;28;20040;-46
2021/07/19 02:11:18;;;;;;;6.60;5.30;;;24.10;99.90;;;;;;5035165;28;20076;-46
2021/07/19 02:13:48;;;;;;;8.02;5.05;;;24.10;99.90;;;;;;5035094;28;20084;-46
2021/07/19 02:16:22;;;;;;;6.67;4.90;;;24.10;99.90;;;;;;5034451;28;20164;-46
2021/07/19 02:18:52;;;;;;;8.73;5.47;;;24.10;99.90;;;;;;5035687;28;20379;-46
2021/07/19 02:21:25;;;;;;;8.65;5.25;;;24.10;99.90;;;;;;5033638;28;20049;-46
2021/07/19 02:24:26;;;;;;;6.20;4.82;;;24.10;99.90;;;;;;5045624;28;20492;-45
2021/07/19 02:27:19;;;;;;;6.28;4.10;;;24.10;99.90;;;;;;5036084;28;20052;-45
2021/07/19 02:29:50;;;;;;;8.02;4.80;;;24.10;99.90;;;;;;5033538;28;20099;-46
2021/07/19 02:32:19;;;;;;;9.90;5.40;;;24.10;99.90;;;;;;5033901;28;20392;-46
2021/07/19 02:34:52;;;;;;;6.65;5.03;;;24.00;99.90;;;;;;5034379;28;20120;-46
2021/07/19 02:37:23;;;;;;;9.98;5.30;;;24.00;99.90;;;;;;5035717;28;20384;-45
2021/07/19 02:40:17;;;;;;;10.05;5.38;;;24.00;99.90;;;;;;5037500;28;20598;-46
2021/07/19 02:42:49;;;;;;;7.03;5.00;;;24.00;99.90;;;;;;5034406;28;20045;-46
2021/07/19 02:45:19;;;;;;;7.60;4.50;;;24.00;99.90;;;;;;5033677;28;20091;-46
2021/07/19 02:47:52;;;;;;;7.25;5.18;;;24.00;99.90;;;;;;5033419;28;20108;-45
2021/07/19 02:50:26;;;;;;;6.65;5.43;;;24.00;99.90;;;;;;5033841;28;20111;-46
2021/07/19 02:53:00;;;;;;;6.57;5.20;;;24.00;99.90;;;;;;5035422;28;20060;-46
2021/07/19 02:55:30;;;;;;;11.23;5.50;;;24.00;99.90;;;;;;5035222;28;20503;-45
2021/07/19 02:58:01;;;;;;;9.15;5.75;;;23.90;99.90;;;;;;5035120;28;20496;-45
2021/07/19 03:00:29;;;;;;;7.43;5.50;;;23.90;99.90;;;;;;5033192;28;20123;-45
2021/07/19 03:03:02;;;;;;;10.70;4.90;;;23.90;99.90;;;;;;5034742;28;20069;-45
2021/07/19 03:05:35;;;;;;;7.85;5.35;;;23.90;99.90;;;;;;5033951;28;20052;-46
2021/07/19 03:08:07;;;;;;;7.60;5.18;;;23.90;99.90;;;;;;5033510;28;20038;-45
2021/07/19 03:10:55;;;;;;;8.50;5.55;;;23.90;99.90;;;;;;5033968;28;20495;-45
2021/07/19 03:13:30;;;;;;;8.05;5.68;;;23.90;99.90;;;;;;5033678;28;20049;-46
2021/07/19 03:15:59;;;;;;;7.82;4.90;;;23.90;99.90;;;;;;5033277;28;20049;-45
2021/07/19 03:18:38;;;;;;;10.40;6.28;;;23.90;99.90;;;;;;5033481;28;20091;-45
2021/07/19 03:21:07;;;;;;;10.07;6.05;;;23.80;99.90;;;;;;5034767;28;20068;-47
2021/07/19 03:23:40;;;;;;;8.30;5.72;;;23.80;99.90;;;;;;5033548;28;20484;-45
2021/07/19 03:26:11;;;;;;;9.82;5.78;;;23.80;99.90;;;;;;5033805;28;20048;-45
2021/07/19 03:28:41;;;;;;;9.52;6.20;;;23.80;99.90;;;;;;5033686;28;20041;-45
2021/07/19 03:31:09;;;;;;;9.20;5.00;;;23.80;99.90;;;;;;5034462;28;20242;-46
2021/07/19 03:33:43;;;;;;;9.00;5.82;;;23.80;99.90;;;;;;5032782;28;20049;-45
2021/07/19 03:36:14;;;;;;;10.07;6.00;;;23.80;99.90;;;;;;5033145;28;20447;-45
2021/07/19 03:38:44;;;;;;;7.53;4.60;;;23.80;99.90;;;;;;5033648;28;20049;-46
2021/07/19 03:41:23;;;;;;;8.30;5.18;;;23.80;99.90;;;;;;5033537;28;20045;-46
2021/07/19 03:43:54;;;;;;;10.40;6.20;;;23.80;99.90;;;;;;5033570;28;20037;-45
2021/07/19 03:46:23;;;;;;;9.45;6.18;;;23.80;99.90;;;;;;5032862;28;20061;-46
2021/07/19 03:48:52;;;;;;;8.73;5.90;;;23.90;99.90;;;;;;5033793;28;20053;-45
2021/07/19 03:51:22;;;;;;;8.15;5.22;;;23.80;99.90;;;;;;5032996;28;20042;-45
2021/07/19 03:53:53;;;;;;;7.95;5.32;;;23.80;99.90;;;;;;5033289;28;20500;-45
2021/07/19 03:56:24;;;;;;;10.63;5.88;;;23.80;99.90;;;;;;5033085;28;20041;-45
2021/07/19 03:58:58;;;;;;;8.23;5.85;;;23.80;99.90;;;;;;5032985;28;20045;-45
2021/07/19 04:01:28;;;;;;;9.13;5.93;;;23.80;99.90;;;;;;5034289;28;20049;-46
2021/07/19 04:04:05;;;;;;;9.98;5.68;;;23.80;99.90;;;;;;5033474;28;20405;-46
2021/07/19 04:06:38;;;;;;;10.18;5.88;;;23.90;99.90;;;;;;5032787;28;20050;-45
2021/07/19 04:09:07;;;;;;;9.00;5.40;;;23.90;99.90;;;;;;5032836;28;20118;-45
2021/07/19 04:11:39;;;;;;;8.20;5.82;;;24.00;99.90;;;;;;5032842;28;20093;-45
2021/07/19 04:14:14;;;;;;;10.75;5.72;;;24.00;99.90;;;;;;5033920;28;20133;-46
2021/07/19 04:16:43;;;;;;;10.10;6.05;;;24.10;99.90;;;;;;5034122;28;20045;-46
2021/07/19 04:19:14;;;;;;;9.73;5.38;;;24.10;99.90;;;;;;5033158;28;20052;-46
2021/07/19 04:21:45;;;;;;;10.82;5.50;;;24.10;99.90;;;;;;5032208;28;20111;-47
2021/07/19 04:24:21;;;;;;;8.18;5.90;;;24.20;99.90;;;;;;5033668;28;20441;-45
2021/07/19 04:26:52;;;;;;;7.72;5.38;;;24.20;99.90;;;;;;5032761;28;20050;-47
2021/07/19 04:29:25;;;;;;;10.02;5.50;;;24.20;99.90;;;;;;5032677;28;20132;-46
2021/07/19 04:31:59;;;;;;;7.43;5.47;;;24.10;99.90;;;;;;5033875;28;20385;-46
2021/07/19 04:34:31;;;;;;;10.13;5.45;;;24.20;99.90;;;;;;5031677;28;20503;-46
2021/07/19 04:37:12;;;;;;;9.85;6.60;;;24.20;99.90;;;;;;5031723;28;20071;-45
2021/07/19 04:39:45;;;;;;;9.13;6.20;;;24.10;99.90;;;;;;5033331;28;20037;-46
2021/07/19 04:42:27;;;;;;;10.25;5.78;;;24.20;99.90;;;;;;5033544;28;20133;-45
2021/07/19 04:44:57;;;;;;;10.20;6.63;;;24.10;99.90;;;;;;5033285;28;20053;-46
2021/07/19 04:47:25;;;;;;;11.18;6.53;;;24.20;99.90;;;;;;5033401;28;20064;-45
2021/07/19 04:49:53;;;;;;;10.00;5.85;;;24.20;99.90;;;;;;5033180;28;20049;-45
2021/07/19 04:52:21;;;;;;;14.07;6.65;;;24.20;99.90;;;;;;5033106;28;20124;-45
2021/07/19 04:54:51;;;;;;;10.60;6.93;;;24.20;99.90;;;;;;5033240;28;20045;-45
2021/07/19 04:57:19;;;;;;;12.40;6.80;;;24.30;99.90;;;;;;5033259;28;20045;-45
2021/07/19 04:59:53;;;;;;;15.25;7.07;;;24.30;99.90;;;;;;5033209;28;20076;-46
2021/07/19 05:02:25;;;;;;;10.77;6.03;;;24.30;99.90;;;;;;5033427;28;20073;-45
2021/07/19 05:04:55;;;;;;;12.00;7.00;;;24.40;99.90;;;;;;5033200;28;20099;-45
2021/07/19 05:07:26;;;;;;;9.45;6.22;;;24.40;99.90;;;;;;5032902;28;20523;-46
2021/07/19 05:09:55;;;;;;;8.63;5.43;;;24.40;99.90;;;;;;5033004;28;20439;-45
2021/07/19 05:12:24;;;;;;;11.50;5.68;;;24.40;99.90;;;;;;5033082;28;20082;-45
2021/07/19 05:14:52;;;;;;;9.30;5.82;;;24.40;99.90;;;;;;5031950;28;20046;-46
2021/07/19 05:17:21;;;;;;;12.90;7.30;;;24.40;99.90;;;;;;5033186;28;20128;-46
2021/07/19 05:19:52;;;;;;;12.73;7.40;;;24.50;99.90;;;;;;5033436;28;20037;-46
2021/07/19 05:22:20;;;;;;;13.10;7.32;;;24.70;99.90;;;;;;5032373;28;20050;-46
2021/07/19 05:24:48;;;;;;;10.18;6.45;;;24.90;99.90;;;;;;5031594;28;20034;-46
2021/07/19 05:27:16;;;;;;;11.63;6.88;;;25.20;99.90;;;;;;5032877;28;20046;-50
2021/07/19 05:29:44;;;;;;;17.63;6.60;;;25.30;99.90;;;;;;5033013;28;20049;-46
2021/07/19 05:32:12;;;;;;;8.55;6.60;;;25.40;99.90;;;;;;5033042;28;20049;-46
2021/07/19 05:34:40;;;;;;;8.68;6.40;;;25.50;99.90;;;;;;5033136;28;20050;-46
2021/07/19 05:37:07;;;;;;;12.02;8.15;;;25.70;99.90;;;;;;5032450;28;20088;-46
2021/07/19 05:39:35;;;;;;;11.40;6.10;;;25.80;99.90;;;;;;5032598;28;20045;-48
2021/07/19 05:42:04;;;;;;;10.82;6.47;;;25.80;99.90;;;;;;5032795;28;20041;-46
2021/07/19 05:44:32;;;;;;;9.93;6.57;;;25.80;99.90;;;;;;5033048;28;20041;-46
2021/07/19 05:47:01;;;;;;;10.35;6.75;;;25.80;99.90;;;;;;5032777;28;20168;-46
2021/07/19 05:49:29;;;;;;;13.73;6.80;;;25.80;99.90;;;;;;5033184;28;20455;-46
2021/07/19 05:51:57;;;;;;;8.60;6.55;;;25.60;99.90;;;;;;5031155;28;20128;-47
2021/07/19 05:54:24;;;;;;;10.98;6.75;;;25.60;99.90;;;;;;5032123;28;20050;-46
2021/07/19 05:56:52;;;;;;;10.10;6.68;;;25.90;99.90;;;;;;5033337;28;20077;-46
2021/07/19 05:59:20;;;;;;;13.82;7.47;;;26.00;99.90;;;;;;5035222;28;20133;-48
2021/07/19 06:01:48;;;;;;;10.23;7.60;;;26.40;99.50;;;;;;5035186;28;20132;-46
2021/07/19 06:04:17;;;;;;;7.45;5.60;;;26.70;99.20;;;;;;5036736;28;20049;-45
2021/07/19 06:06:45;;;;;;;11.43;6.60;;;27.00;98.60;;;;;;5035206;28;20053;-46
2021/07/19 06:09:14;;;;;;;9.95;6.95;;;27.30;98.40;;;;;;5035445;28;20440;-46
2021/07/19 06:11:42;;;;;;;9.77;6.85;;;27.50;98.00;;;;;;5035861;28;20128;-45
2021/07/19 06:14:11;;;;;;;11.02;6.20;;;27.80;97.70;;;;;;5036165;28;20128;-48
2021/07/19 06:16:39;;;;;;;7.78;5.65;;;28.00;97.40;;;;;;5036170;28;20095;-45
2021/07/19 06:19:07;;;;;;;8.77;5.90;;;28.10;97.20;;;;;;5036056;28;20046;-46
2021/07/19 06:21:35;;;;;;;7.95;6.38;;;28.30;97.00;;;;;;5034834;28;20049;-46
2021/07/19 06:24:06;;;;;;;10.35;6.45;;;28.50;96.70;;;;;;5035283;28;20053;-45
2021/07/19 06:26:34;;;;;;;8.30;5.60;;;28.70;96.40;;;;;;5035605;28;20042;-46
2021/07/19 06:29:04;;;;;;;11.48;5.63;;;28.80;96.10;;;;;;5035867;28;20041;-46
2021/07/19 06:31:32;;;;;;;11.55;6.07;;;29.00;95.90;;;;;;5034718;28;20137;-46
2021/07/19 06:34:00;;;;;;;9.75;6.22;;;29.10;95.70;;;;;;5035838;28;20042;-46
2021/07/19 06:36:31;;;;;;;8.05;5.55;;;28.90;95.60;;;;;;5035659;28;20050;-46
2021/07/19 06:38:59;;;;;;;11.13;6.18;;;28.80;95.70;;;;;;5035272;28;20100;-47
2021/07/19 06:41:27;;;;;;;9.30;5.88;;;28.60;95.90;;;;;;5035276;28;20049;-47
2021/07/19 06:43:55;;;;;;;11.93;6.57;;;28.40;96.10;;;;;;5035613;28;20052;-46
2021/07/19 06:46:22;;;;;;;11.20;6.50;;;28.20;96.40;;;;;;5035361;28;20134;-45
2021/07/19 06:48:52;;;;;;;9.32;6.75;;;28.00;96.60;;;;;;5035728;28;20145;-45
2021/07/19 06:51:19;;;;;;;10.65;6.28;;;27.80;96.80;;;;;;5035389;28;20046;-45
2021/07/19 06:53:47;;;;;;;9.45;6.32;;;27.80;97.10;;;;;;5035595;28;20041;-46
2021/07/19 06:56:17;;;;;;;8.57;6.07;;;28.00;97.10;;;;;;5034649;28;20033;-48
2021/07/19 06:58:45;;;;;;;7.68;5.78;;;28.20;96.90;;;;;;5034997;28;20407;-46
2021/07/19 07:01:12;;;;;;;8.93;6.43;;;28.60;96.30;;;;;;5035174;28;20124;-46
2021/07/19 07:03:40;;;;;;;8.23;5.82;;;28.70;95.90;;;;;;5035204;28;20084;-47
2021/07/19 07:06:22;;;;;;;9.50;5.82;;;28.80;95.80;;;;;;5035211;28;20045;-46
2021/07/19 07:08:49;;;;;;;9.00;5.18;;;28.80;95.70;;;;;;5035268;28;20041;-48
2021/07/19 07:11:17;;;;;;;10.25;6.63;;;28.80;95.70;;;;;;5035186;28;20045;-46
2021/07/19 07:13:44;;;;;;;9.75;5.82;;;28.90;95.70;;;;;;5035240;28;20119;-52
2021/07/19 07:16:12;;;;;;;7.95;5.43;;;29.00;95.50;;;;;;5035243;28;20050;-47
2021/07/19 07:18:40;;;;;;;9.43;6.47;;;29.10;95.40;;;;;;5035201;28;20045;-49
2021/07/19 07:21:07;;;;;;;9.05;6.57;;;29.20;95.30;;;;;;5034108;28;20443;-49
2021/07/19 07:23:35;;;;;;;10.18;6.72;;;29.30;95.10;;;;;;5035096;28;20496;-47
2021/07/19 07:26:03;;;;;;;8.75;6.57;;;29.50;95.10;;;;;;5035100;28;20045;-48
2021/07/19 07:28:31;;;;;;;9.63;5.82;;;29.70;94.70;;;;;;5035310;28;20049;-46
2021/07/19 07:30:59;;;;;;;6.70;4.53;;;29.80;94.00;;;;;;5034928;28;20119;-46
2021/07/19 07:33:27;;;;;;;8.27;5.45;;;29.90;93.80;;;;;;5034783;28;20049;-46
2021/07/19 07:35:55;;;;;;;8.50;5.20;;;30.00;93.60;;;;;;5033424;28;20045;-47
2021/07/19 07:38:22;;;;;;;8.23;4.40;;;30.00;93.90;;;;;;5034360;28;20046;-46
2021/07/19 07:40:52;;;;;;;6.53;5.07;;;30.10;93.70;;;;;;5033368;28;20096;-46
2021/07/19 07:43:20;;;;;;;6.97;4.55;;;30.20;92.90;;;;;;5034424;28;20120;-47
2021/07/19 07:45:51;;;;;;;10.00;4.63;;;30.40;92.80;;;;;;5033011;28;20045;-47
2021/07/19 07:48:19;;;;;;;6.80;4.45;;;30.30;92.40;;;;;;5034497;28;20057;-47
2021/07/19 07:50:47;;;;;;;7.53;3.70;;;30.10;92.20;;;;;;5034268;28;20477;-46
2021/07/19 07:53:16;;;;;;;5.07;3.50;;;29.60;92.00;;;;;;5034352;28;20049;-47
2021/07/19 07:55:45;;;;;;;8.07;4.10;;;29.30;91.90;;;;;;5034261;28;20052;-50
2021/07/19 07:58:12;;;;;;;6.53;3.80;;;29.10;92.10;;;;;;5032817;28;20056;-46
2021/07/19 08:00:41;;;;;;;5.70;3.63;;;28.90;92.10;;;;;;5034124;28;20052;-50
2021/07/19 08:03:08;;;;;;;5.57;3.60;;;28.90;92.20;;;;;;5034104;28;20407;-48
2021/07/19 08:05:37;;;;;;;5.95;3.67;;;28.90;92.10;;;;;;5034078;28;20037;-52
2021/07/19 08:08:05;;;;;;;5.20;3.83;;;29.00;92.10;;;;;;5032868;28;20128;-49
2021/07/19 08:10:33;;;;;;;5.75;3.92;;;29.20;92.00;;;;;;5034046;28;20045;-51
2021/07/19 08:13:01;;;;;;;6.45;4.00;;;29.40;92.00;;;;;;5033927;28;20041;-50
2021/07/19 08:15:29;;;;;;;5.78;3.63;;;29.70;91.90;;;;;;5033816;28;20042;-47
2021/07/19 08:17:57;;;;;;;5.88;3.70;;;29.80;91.80;;;;;;5033776;28;20042;-51
2021/07/19 08:20:25;;;;;;;6.55;3.88;;;29.90;91.70;;;;;;5032191;28;20141;-51
2021/07/19 08:22:53;;;;;;;5.65;4.40;;;30.00;91.00;;;;;;5032395;28;20068;-51
2021/07/19 08:25:21;;;;;;;7.55;3.90;;;29.90;90.40;;;;;;5032556;28;20116;-48
2021/07/19 08:27:49;;;;;;;5.65;3.80;;;29.70;90.40;;;;;;5033621;28;20038;-49
2021/07/19 08:30:17;;;;;;;5.22;4.13;;;29.60;90.40;;;;;;5033953;28;20163;-48
2021/07/19 08:32:48;;;;;;;5.43;3.60;;;29.30;90.90;;;;;;5015905;28;20046;-48
2021/07/19 08:35:16;;;;;;;6.03;4.25;;;29.20;91.20;;;;;;5032566;28;20045;-51
2021/07/19 08:37:46;;;;;;;6.07;3.83;;;28.90;91.30;;;;;;5033419;28;20046;-46
2021/07/19 08:40:16;;;;;;;5.50;3.53;;;28.80;91.40;;;;;;5015983;28;20064;-50
2021/07/19 08:42:44;;;;;;;6.90;4.20;;;28.60;91.40;;;;;;5033549;28;20443;-50
2021/07/19 08:45:13;;;;;;;6.80;3.20;;;28.40;91.80;;;;;;5033449;28;20051;-51
2021/07/19 08:47:42;;;;;;;6.13;3.60;;;28.30;91.80;;;;;;5033166;28;20518;-48
2021/07/19 08:50:12;;;;;;;4.50;2.72;;;28.30;91.90;;;;;;5033227;28;20045;-52
2021/07/19 08:52:42;;;;;;;4.78;3.78;;;28.30;91.80;;;;;;5033434;28;20095;-47
2021/07/19 08:55:11;;;;;;;5.60;3.65;;;28.30;91.80;;;;;;5033385;28;20399;-49
2021/07/19 08:57:42;;;;;;;7.00;3.95;;;28.30;91.90;;;;;;5032346;28;20508;-47
2021/07/19 09:00:10;;;;;;;7.65;4.55;;;28.40;91.70;;;;;;5033461;28;20084;-47
2021/07/19 09:02:38;;;;;;;7.53;4.40;;;28.70;91.20;;;;;;5031992;28;20053;-48
2021/07/19 09:05:07;;;;;;;7.68;4.28;;;28.90;91.30;;;;;;5032002;28;20048;-47
2021/07/19 09:07:35;;;;;;;6.55;4.38;;;29.20;91.40;;;;;;5032167;28;20458;-48
2021/07/19 09:10:04;;;;;;;8.05;5.20;;;29.20;91.50;;;;;;5033064;28;20057;-47
2021/07/19 09:12:34;;;;;;;7.45;4.90;;;29.30;91.60;;;;;;5033296;28;20125;-48
2021/07/19 09:15:03;;;;;;;6.55;3.72;;;29.30;91.10;;;;;;5033115;28;20042;-49
2021/07/19 09:17:31;;;;;;;6.07;3.78;;;29.30;90.10;;;;;;5033238;28;20120;-53
2021/07/19 09:19:59;;;;;;;5.22;3.38;;;29.50;90.10;;;;;;5031878;28;20091;-52
2021/07/19 09:22:29;;;;;;;8.90;4.20;;;30.00;90.10;;;;;;5031907;28;20128;-53
2021/07/19 09:25:12;;;;;;;6.07;4.30;;;30.30;90.10;;;;;;5032122;28;20052;-49
2021/07/19 09:28:06;;;;;;;5.10;3.60;;;30.30;90.30;;;;;;5033067;28;20045;-50
2021/07/19 09:30:40;;;;;;;4.78;3.30;;;30.10;90.20;;;;;;5034440;28;20399;-50
2021/07/19 09:33:13;;;;;;;4.38;3.13;;;30.00;90.30;;;;;;5035647;28;20541;-53
2021/07/19 09:35:43;;;;;;;4.63;3.08;;;29.80;89.80;;;;;;5035884;28;20069;-48
2021/07/19 09:38:16;;;;;;;5.63;2.97;;;29.70;89.80;;;;;;5035515;28;20120;-46
2021/07/19 09:40:52;;;;;;;4.75;2.90;;;29.70;89.50;;;;;;5019260;28;20235;-51
2021/07/19 09:43:23;;;;;;;3.67;2.42;;;29.60;88.70;;;;;;5036843;28;20049;-48
2021/07/19 09:45:59;;;;;;;4.28;2.95;;;29.60;88.80;;;;;;5035633;28;20049;-51
2021/07/19 09:48:27;;;;;;;5.22;3.08;;;29.40;88.80;;;;;;5036517;28;20458;-47
2021/07/19 09:50:55;;;;;;;5.68;3.15;;;29.30;88.50;;;;;;5035234;28;20046;-46
2021/07/19 09:53:32;;;;;;;4.40;2.70;;;29.20;88.10;;;;;;5036593;28;20488;-47
2021/07/19 09:56:15;;;;;;;3.40;2.30;;;29.30;87.70;;;;;;5035269;28;20384;-47
2021/07/19 09:58:48;;;;;;;3.10;2.45;;;29.50;85.80;;;;;;5036829;28;20488;-48
2021/07/19 10:01:36;;;;;;;3.38;2.08;;;29.80;84.90;;;;;;5035365;28;20045;-52
2021/07/19 10:04:08;;;;;;;3.50;2.42;;;30.10;83.60;;;;;;5036512;28;20048;-48
2021/07/19 10:06:38;;;;;;;4.03;2.65;;;30.30;82.80;;;;;;5036028;28;20052;-48
2021/07/19 10:09:07;;;;;;;4.07;2.67;;;30.30;83.30;;;;;;5035459;28;20045;-47
2021/07/19 10:11:41;;;;;;;4.68;2.70;;;30.30;82.70;;;;;;5035320;28;20046;-49
2021/07/19 10:14:09;;;;;;;3.35;2.08;;;30.10;83.00;;;;;;5033992;28;20041;-48
2021/07/19 10:16:39;;;;;;;6.68;2.75;;;30.10;83.10;;;;;;5034764;28;20041;-47
2021/07/19 10:19:08;;;;;;;9.30;3.05;;;29.90;82.10;;;;;;5033763;28;20053;-47
2021/07/19 10:21:36;;;;;;;6.40;2.35;;;29.80;82.20;;;;;;5017536;28;20068;-51
2021/07/19 10:24:06;;;;;;;4.38;2.60;;;29.60;82.50;;;;;;5017558;28;20045;-49
2021/07/19 10:26:35;;;;;;;5.43;2.60;;;29.40;82.50;;;;;;5035255;28;20048;-47
2021/07/19 10:29:07;;;;;;;2.20;1.70;;;29.30;83.10;;;;;;5035231;28;20107;-52
2021/07/19 10:31:37;;;;;;;10.60;2.83;;;29.30;83.20;;;;;;5033863;28;20124;-51
2021/07/19 10:34:05;;;;;;;7.68;2.58;;;29.20;83.00;;;;;;5001090;28;20542;-49
2021/07/19 10:36:43;;;;;;;3.80;2.10;;;29.40;83.40;;;;;;5034999;28;20189;-48
2021/07/19 10:39:20;;;;;;;5.95;2.03;;;29.60;83.90;;;;;;5035030;28;20045;-48
2021/07/19 10:42:06;;;;;;;3.70;2.10;;;29.80;83.10;;;;;;5032955;28;20045;-47
2021/07/19 10:44:35;;;;;;;;;;;30.20;83.30;;;;;;5035669;28;20041;-52
2021/07/19 10:47:30;;;;;;;4.85;2.17;;;30.40;83.10;;;;;;5034604;28;19921;-50
2021/07/19 10:50:00;;;;;;;6.43;2.10;;;30.30;82.70;;;;;;5034308;28;20056;-47
2021/07/19 10:52:36;;;;;;;5.70;2.50;;;30.20;82.90;;;;;;5034633;28;20057;-52
2021/07/19 10:55:10;;;;;;;3.63;2.45;;;30.00;83.40;;;;;;5034806;28;20130;-52
2021/07/19 10:57:46;;;;;;;4.25;2.08;;;29.80;83.70;;;;;;5033351;28;20075;-48
2021/07/19 11:00:17;;;;;;;3.78;2.33;;;29.60;83.30;;;;;;5034598;28;20075;-46
2021/07/19 11:02:44;;;;;;;3.83;2.33;;;29.40;83.60;;;;;;5034666;28;20056;-48
2021/07/19 11:05:15;;;;;;;4.65;2.22;;;29.30;83.70;;;;;;5034505;28;20056;-48
2021/07/19 11:07:45;;;;;;;4.63;2.10;;;29.20;83.30;;;;;;5034395;28;20049;-49
2021/07/19 11:10:17;;;;;;;3.85;2.58;;;29.10;83.80;;;;;;5034308;28;20091;-46
2021/07/19 11:13:05;;;;;;;6.70;3.40;;;28.90;84.60;;;;;;5034156;28;20081;-46
2021/07/19 11:15:41;;;;;;;8.45;3.78;;;27.70;92.00;;;;;;5033949;28;20491;-47
2021/07/19 11:18:16;;;;;;;6.30;3.10;;;27.10;93.40;;;;;;5034372;28;20132;-46
2021/07/19 11:20:48;;;;;;;9.23;4.00;;;26.90;93.60;;;;;;5034310;28;20045;-47
2021/07/19 11:23:28;;;;;;;7.93;3.40;;;26.90;93.10;;;;;;5032877;28;20148;-50
2021/07/19 11:25:57;;;;;;;8.02;3.15;;;26.80;93.10;;;;;;5034126;28;20121;-47
2021/07/19 11:28:27;;;;;;;11.38;4.25;;;26.80;94.00;;;;;;5032416;28;20396;-46
2021/07/19 11:31:19;;;;;;;14.68;4.65;;;26.80;95.20;;;;;;5034019;28;20080;-48
2021/07/19 11:33:56;;;;;;;12.00;4.90;;;26.40;97.80;;;;;;5033906;28;20049;-47
2021/07/19 11:36:45;;;;;;;9.88;4.00;;;26.00;99.50;;;;;;5034211;28;20075;-47
2021/07/19 11:39:21;;;;;;;7.00;3.22;;;25.20;99.90;;;;;;5033968;28;20503;-53
2021/07/19 11:42:10;;;;;;;6.28;3.30;;;24.90;99.90;;;;;;5034188;28;20050;-52
2021/07/19 11:44:52;;;;;;;9.45;4.22;;;24.50;99.90;;;;;;5033285;28;20072;-52
2021/07/19 11:58:04;;;;;;;9.45;4.95;;;23.60;99.90;;;;;;4971315;28;20448;-47
2021/07/19 12:00:48;;;;;;;9.68;4.93;;;23.40;99.90;;;;;;5050765;28;20048;-48
2021/07/19 12:03:33;;;;;;;8.82;4.75;;;23.40;99.90;;;;;;5072231;28;20062;-51
2021/07/19 12:06:01;;;;;;;11.52;5.78;;;23.50;99.90;;;;;;5071957;28;20072;-47
2021/07/19 12:08:34;;;;;;;9.90;5.60;;;23.40;99.90;;;;;;5072265;28;20098;-48
2021/07/19 12:11:09;;;;;;;8.25;5.70;;;23.40;99.90;;;;;;5072129;28;20048;-49
2021/07/19 12:13:43;;;;;;;10.38;5.18;;;23.30;99.90;;;;;;5072100;28;20059;-51
2021/07/19 12:16:13;;;;;;;11.13;5.22;;;23.20;99.90;;;;;;5072028;28;20126;-50
2021/07/19 12:18:46;;;;;;;7.43;5.22;;;23.20;99.90;;;;;;5071883;28;20098;-50
2021/07/19 12:21:19;;;;;;;10.50;4.93;;;23.50;99.90;;;;;;5056038;28;20078;-47
2021/07/19 12:23:51;;;;;;;7.32;4.63;;;23.80;99.90;;;;;;5071897;28;20135;-49
2021/07/19 12:26:34;;;;;;;7.72;4.85;;;24.00;99.90;;;;;;5036529;28;20049;-47
2021/07/19 12:29:15;;;;;;;7.90;4.53;;;24.40;99.90;;;;;;5019011;28;20040;-49
2021/07/19 12:31:43;;;;;;;6.53;4.22;;;24.80;99.90;;;;;;5035021;28;20182;-47
2021/07/19 12:34:22;;;;;;;8.48;5.28;;;25.10;99.90;;;;;;5015743;28;20045;-47
2021/07/19 12:37:00;;;;;;;5.43;4.03;;;25.60;99.90;;;;;;5034044;28;20069;-51
2021/07/19 12:39:50;;;;;;;6.40;4.38;;;25.90;99.90;;;;;;5000186;28;20048;-53
2021/07/19 12:42:22;;;;;;;5.70;3.63;;;26.30;99.90;;;;;;5033745;28;20053;-48
2021/07/19 12:44:58;;;;;;;4.95;3.60;;;26.60;99.90;;;;;;5032556;28;20044;-47
2021/07/19 12:47:28;;;;;;;7.63;4.00;;;26.90;99.90;;;;;;5033840;28;20136;-52
2021/07/19 12:50:03;;;;;;;6.72;3.88;;;27.10;99.90;;;;;;5033689;28;20045;-52
2021/07/19 12:52:32;;;;;;;4.80;2.80;;;27.30;99.90;;;;;;5033507;28;20045;-50
2021/07/19 12:55:27;;;;;;;3.95;3.03;;;27.50;99.90;;;;;;5033644;28;20115;-48
2021/07/19 12:57:56;;;;;;;6.57;2.97;;;27.60;99.90;;;;;;5033594;28;20046;-47
2021/07/19 13:00:29;;;;;;;4.78;3.60;;;27.70;99.90;;;;;;5032386;28;20033;-49
2021/07/19 13:03:05;;;;;;;4.68;3.13;;;27.80;99.90;;;;;;5033516;28;20049;-46
2021/07/19 13:05:34;;;;;;;5.28;3.20;;;27.90;99.90;;;;;;5033220;28;20038;-48
2021/07/19 13:08:02;;;;;;;5.68;3.38;;;28.00;99.40;;;;;;5033431;28;20037;-47
2021/07/19 13:10:30;;;;;;;4.97;3.03;;;28.10;98.90;;;;;;5033450;28;20495;-51
2021/07/19 13:13:01;;;;;;;5.35;3.78;;;28.10;98.60;;;;;;5032347;28;20045;-50
2021/07/19 13:15:32;;;;;;;4.80;3.20;;;28.20;98.40;;;;;;5033357;28;20064;-48
2021/07/19 13:18:06;;;;;;;4.88;3.55;;;27.70;96.90;;;;;;5032217;28;20041;-50
2021/07/19 13:20:39;;;;;;;5.05;3.50;;;27.50;98.00;;;;;;5033585;28;20084;-49